Lake of the Woods, Illinois
Current Conditions -  °F | °C
As of 7:54 AM on Monday 22 Dec 2014 (Local Time) from KPIA Reporting Station
Light Rain Light Rain  
Wind Chill: -1°   Ceiling: 4500
Heat Index:   Visibility: 6mi
Dew Point: -1°   Wind: 10mph
Humidity: 76%   Direction: 130°SE
Pressure: 29.82"   Gusts: NA
Location:  40.8455°N, 89.6704°W
Report Text: KPIA 221354Z 13009KT 6SM -RA OVC045 03/M01 A2982 RMK AO2 RAB45 SLP103 P0000 T00281011
Loading
Personal Weather Stations






























Interactive Weather Map New forecast layout! Learn more

10-Day Weather Forecast

Advertisements
Track Severe Weather on mobile